sensor_id;sensor_type;location;lat;lon;timestamp;pressure;altitude;pressure_sealevel;temperature;humidity
59053;BME280;44843;44.728;10.396;2023-02-16T00:00:43;101680.19;;;5.84;nan
59053;BME280;44843;44.728;10.396;2023-02-16T00:03:17;101687.16;;;5.81;nan
59053;BME280;44843;44.728;10.396;2023-02-16T00:05:43;101686.31;;;5.78;nan
59053;BME280;44843;44.728;10.396;2023-02-16T00:08:08;101686.38;;;5.75;nan
59053;BME280;44843;44.728;10.396;2023-02-16T00:10:35;101682.00;;;5.79;nan
59053;BME280;44843;44.728;10.396;2023-02-16T00:13:17;101680.94;;;5.91;nan
59053;BME280;44843;44.728;10.396;2023-02-16T00:16:04;101674.94;;;5.89;nan
59053;BME280;44843;44.728;10.396;2023-02-16T00:18:29;101684.38;;;5.91;nan
59053;BME280;44843;44.728;10.396;2023-02-16T00:20:54;101681.75;;;5.94;nan
59053;BME280;44843;44.728;10.396;2023-02-16T00:23:20;101682.69;;;5.90;nan
59053;BME280;44843;44.728;10.396;2023-02-16T00:25:45;101686.41;;;5.74;nan
59053;BME280;44843;44.728;10.396;2023-02-16T00:28:13;101679.63;;;5.67;nan
59053;BME280;44843;44.728;10.396;2023-02-16T00:30:40;101676.97;;;5.71;nan
59053;BME280;44843;44.728;10.396;2023-02-16T00:33:16;101685.56;;;5.72;nan
59053;BME280;44843;44.728;10.396;2023-02-16T00:35:42;101682.91;;;5.76;nan
59053;BME280;44843;44.728;10.396;2023-02-16T00:38:08;101682.13;;;5.73;nan
59053;BME280;44843;44.728;10.396;2023-02-16T00:40:34;101689.09;;;5.68;nan
59053;BME280;44843;44.728;10.396;2023-02-16T00:42:59;101686.50;;;5.68;nan
59053;BME280;44843;44.728;10.396;2023-02-16T00:45:25;101683.84;;;5.72;nan
59053;BME280;44843;44.728;10.396;2023-02-16T00:47:51;101688.25;;;5.66;nan
59053;BME280;44843;44.728;10.396;2023-02-16T00:50:26;101690.91;;;5.63;nan
59053;BME280;44843;44.728;10.396;2023-02-16T00:52:52;101688.34;;;5.61;nan
59053;BME280;44843;44.728;10.396;2023-02-16T00:55:23;101676.31;;;5.60;nan
59053;BME280;44843;44.728;10.396;2023-02-16T00:58:13;101683.97;;;5.65;nan
59053;BME280;44843;44.728;10.396;2023-02-16T01:00:43;101684.09;;;5.58;nan
59053;BME280;44843;44.728;10.396;2023-02-16T01:03:16;101686.78;;;5.51;nan
59053;BME280;44843;44.728;10.396;2023-02-16T01:05:42;101687.03;;;5.35;nan
59053;BME280;44843;44.728;10.396;2023-02-16T01:08:13;101678.50;;;5.30;nan
59053;BME280;44843;44.728;10.396;2023-02-16T01:10:58;101675.84;;;5.35;nan
59053;BME280;44843;44.728;10.396;2023-02-16T01:13:27;101678.31;;;5.43;nan
59053;BME280;44843;44.728;10.396;2023-02-16T01:15:52;101662.63;;;5.52;nan
59053;BME280;44843;44.728;10.396;2023-02-16T01:18:19;101666.06;;;5.52;nan
59053;BME280;44843;44.728;10.396;2023-02-16T01:20:45;101666.06;;;5.52;nan
59053;BME280;44843;44.728;10.396;2023-02-16T01:23:11;101666.91;;;5.53;nan
59053;BME280;44843;44.728;10.396;2023-02-16T01:25:36;101664.38;;;5.51;nan
59053;BME280;44843;44.728;10.396;2023-02-16T01:28:07;101660.13;;;5.47;nan
59053;BME280;44843;44.728;10.396;2023-02-16T01:30:40;101651.44;;;5.51;nan
59053;BME280;44843;44.728;10.396;2023-02-16T01:33:06;101648.13;;;5.43;nan
59053;BME280;44843;44.728;10.396;2023-02-16T01:35:32;101647.22;;;5.46;nan
59053;BME280;44843;44.728;10.396;2023-02-16T01:37:58;101650.00;;;5.33;nan
59053;BME280;44843;44.728;10.396;2023-02-16T01:43:09;101635.59;;;5.19;nan
59053;BME280;44843;44.728;10.396;2023-02-16T01:45:40;101635.56;;;5.20;nan
59053;BME280;44843;44.728;10.396;2023-02-16T01:48:20;101628.78;;;5.13;nan
59053;BME280;44843;44.728;10.396;2023-02-16T01:53:25;101628.91;;;5.05;nan
59053;BME280;44843;44.728;10.396;2023-02-16T01:55:55;101633.19;;;5.06;nan
59053;BME280;44843;44.728;10.396;2023-02-16T02:03:27;101623.91;;;4.94;nan
59053;BME280;44843;44.728;10.396;2023-02-16T02:06:20;101623.03;;;4.94;nan
59053;BME280;44843;44.728;10.396;2023-02-16T02:11:29;101618.56;;;5.05;nan
59053;BME280;44843;44.728;10.396;2023-02-16T02:14:07;101620.16;;;5.14;nan
59053;BME280;44843;44.728;10.396;2023-02-16T02:16:33;101611.66;;;5.06;nan
59053;BME280;44843;44.728;10.396;2023-02-16T02:18:59;101612.44;;;5.09;nan
59053;BME280;44843;44.728;10.396;2023-02-16T02:22:01;101616.09;;;4.96;nan
59053;BME280;44843;44.728;10.396;2023-02-16T02:28:21;101617.81;;;4.97;nan
59053;BME280;44843;44.728;10.396;2023-02-16T02:33:58;101618.84;;;4.87;nan
59053;BME280;44843;44.728;10.396;2023-02-16T02:39:39;101616.22;;;4.90;nan
59053;BME280;44843;44.728;10.396;2023-02-16T02:42:18;101610.22;;;4.86;nan
59053;BME280;44843;44.728;10.396;2023-02-16T02:44:50;101609.22;;;4.97;nan
59053;BME280;44843;44.728;10.396;2023-02-16T02:47:19;101617.09;;;4.87;nan
59053;BME280;44843;44.728;10.396;2023-02-16T02:49:49;101615.41;;;4.86;nan
59053;BME280;44843;44.728;10.396;2023-02-16T02:52:15;101616.09;;;4.98;nan
59053;BME280;44843;44.728;10.396;2023-02-16T02:54:40;101612.50;;;5.06;nan
59053;BME280;44843;44.728;10.396;2023-02-16T02:57:30;101618.41;;;5.14;nan
59053;BME280;44843;44.728;10.396;2023-02-16T03:00:36;101618.25;;;5.24;nan
59053;BME280;44843;44.728;10.396;2023-02-16T03:05:50;101621.00;;;5.14;nan
59053;BME280;44843;44.728;10.396;2023-02-16T03:08:21;101622.69;;;5.15;nan
59053;BME280;44843;44.728;10.396;2023-02-16T03:10:50;101624.50;;;5.12;nan
59053;BME280;44843;44.728;10.396;2023-02-16T03:13:42;101624.31;;;5.23;nan
59053;BME280;44843;44.728;10.396;2023-02-16T03:16:13;101624.44;;;5.13;nan
59053;BME280;44843;44.728;10.396;2023-02-16T03:18:40;101620.56;;;4.88;nan
59053;BME280;44843;44.728;10.396;2023-02-16T03:21:27;101625.19;;;4.64;nan
59053;BME280;44843;44.728;10.396;2023-02-16T03:24:18;101621.91;;;4.53;nan
59053;BME280;44843;44.728;10.396;2023-02-16T03:27:05;101623.03;;;4.30;nan
59053;BME280;44843;44.728;10.396;2023-02-16T03:29:51;101624.00;;;4.23;nan
59053;BME280;44843;44.728;10.396;2023-02-16T03:32:18;101629.31;;;4.11;nan
59053;BME280;44843;44.728;10.396;2023-02-16T03:34:43;101630.97;;;4.15;nan
59053;BME280;44843;44.728;10.396;2023-02-16T03:37:09;101638.72;;;4.17;nan
59053;BME280;44843;44.728;10.396;2023-02-16T03:39:35;101629.34;;;4.08;nan
59053;BME280;44843;44.728;10.396;2023-02-16T03:42:21;101624.19;;;4.06;nan
59053;BME280;44843;44.728;10.396;2023-02-16T03:44:47;101636.13;;;4.17;nan
59053;BME280;44843;44.728;10.396;2023-02-16T03:47:12;101633.56;;;4.17;nan
59053;BME280;44843;44.728;10.396;2023-02-16T03:49:37;101632.78;;;4.08;nan
59053;BME280;44843;44.728;10.396;2023-02-16T03:52:03;101637.84;;;4.18;nan
59053;BME280;44843;44.728;10.396;2023-02-16T03:54:28;101640.56;;;4.07;nan
59053;BME280;44843;44.728;10.396;2023-02-16T03:56:54;101638.81;;;4.09;nan
59053;BME280;44843;44.728;10.396;2023-02-16T03:59:19;101633.66;;;4.06;nan
59053;BME280;44843;44.728;10.396;2023-02-16T04:01:44;101637.88;;;4.13;nan
59053;BME280;44843;44.728;10.396;2023-02-16T04:04:10;101636.25;;;4.09;nan
59053;BME280;44843;44.728;10.396;2023-02-16T04:06:36;101633.53;;;4.18;nan
59053;BME280;44843;44.728;10.396;2023-02-16T04:09:01;101631.69;;;4.28;nan
59053;BME280;44843;44.728;10.396;2023-02-16T04:11:27;101637.69;;;4.30;nan
59053;BME280;44843;44.728;10.396;2023-02-16T04:14:11;101637.81;;;4.19;nan
59053;BME280;44843;44.728;10.396;2023-02-16T04:16:37;101644.66;;;4.23;nan
59053;BME280;44843;44.728;10.396;2023-02-16T04:19:02;101641.25;;;4.21;nan
59053;BME280;44843;44.728;10.396;2023-02-16T04:21:28;101645.63;;;4.16;nan
59053;BME280;44843;44.728;10.396;2023-02-16T04:23:53;101636.06;;;4.23;nan
59053;BME280;44843;44.728;10.396;2023-02-16T04:26:19;101631.84;;;4.16;nan
59053;BME280;44843;44.728;10.396;2023-02-16T04:28:44;101641.25;;;4.20;nan
59053;BME280;44843;44.728;10.396;2023-02-16T04:31:10;101642.13;;;4.20;nan
59053;BME280;44843;44.728;10.396;2023-02-16T04:33:35;101649.81;;;4.26;nan
59053;BME280;44843;44.728;10.396;2023-02-16T04:36:00;101644.88;;;4.05;nan
59053;BME280;44843;44.728;10.396;2023-02-16T04:38:26;101643.09;;;4.08;nan
59053;BME280;44843;44.728;10.396;2023-02-16T04:40:51;101641.41;;;4.09;nan
59053;BME280;44843;44.728;10.396;2023-02-16T04:43:16;101643.88;;;4.18;nan
59053;BME280;44843;44.728;10.396;2023-02-16T04:45:42;101646.47;;;4.17;nan
59053;BME280;44843;44.728;10.396;2023-02-16T04:48:07;101648.00;;;4.31;nan
59053;BME280;44843;44.728;10.396;2023-02-16T04:50:32;101652.38;;;4.26;nan
59053;BME280;44843;44.728;10.396;2023-02-16T04:52:58;101646.41;;;4.23;nan
59053;BME280;44843;44.728;10.396;2023-02-16T04:55:23;101646.34;;;4.26;nan
59053;BME280;44843;44.728;10.396;2023-02-16T04:57:49;101646.41;;;4.23;nan
59053;BME280;44843;44.728;10.396;2023-02-16T05:00:15;101652.19;;;4.42;nan
59053;BME280;44843;44.728;10.396;2023-02-16T05:02:40;101652.09;;;4.49;nan
59053;BME280;44843;44.728;10.396;2023-02-16T05:05:06;101652.13;;;4.46;nan
59053;BME280;44843;44.728;10.396;2023-02-16T05:07:31;101653.91;;;4.43;nan
59053;BME280;44843;44.728;10.396;2023-02-16T05:09:57;101659.19;;;4.30;nan
59053;BME280;44843;44.728;10.396;2023-02-16T05:12:22;101653.19;;;4.31;nan
59053;BME280;44843;44.728;10.396;2023-02-16T05:15:06;101656.66;;;4.27;nan
59053;BME280;44843;44.728;10.396;2023-02-16T05:17:32;101655.78;;;4.28;nan
59053;BME280;44843;44.728;10.396;2023-02-16T05:19:58;101661.94;;;4.18;nan
59053;BME280;44843;44.728;10.396;2023-02-16T05:22:25;101654.25;;;4.12;nan
59053;BME280;44843;44.728;10.396;2023-02-16T05:24:51;101659.53;;;4.01;nan
59053;BME280;44843;44.728;10.396;2023-02-16T05:27:18;101662.94;;;4.05;nan
59053;BME280;44843;44.728;10.396;2023-02-16T05:29:44;101664.72;;;4.00;nan
59053;BME280;44843;44.728;10.396;2023-02-16T05:32:10;101664.75;;;3.98;nan
59053;BME280;44843;44.728;10.396;2023-02-16T05:34:35;101669.84;;;4.03;nan
59053;BME280;44843;44.728;10.396;2023-02-16T05:37:01;101666.50;;;3.95;nan
59053;BME280;44843;44.728;10.396;2023-02-16T05:39:26;101662.28;;;3.86;nan
59053;BME280;44843;44.728;10.396;2023-02-16T05:41:51;101665.75;;;3.83;nan
59053;BME280;44843;44.728;10.396;2023-02-16T05:44:17;101660.66;;;3.77;nan
59053;BME280;44843;44.728;10.396;2023-02-16T05:46:42;101667.59;;;3.72;nan
59053;BME280;44843;44.728;10.396;2023-02-16T05:49:08;101663.31;;;3.65;nan
59053;BME280;44843;44.728;10.396;2023-02-16T05:51:35;101670.31;;;3.55;nan
59053;BME280;44843;44.728;10.396;2023-02-16T05:54:00;101667.59;;;3.69;nan
59053;BME280;44843;44.728;10.396;2023-02-16T05:56:26;101669.19;;;3.82;nan
59053;BME280;44843;44.728;10.396;2023-02-16T05:58:52;101670.91;;;3.82;nan
59053;BME280;44843;44.728;10.396;2023-02-16T06:01:18;101674.34;;;3.82;nan
59053;BME280;44843;44.728;10.396;2023-02-16T06:03:44;101675.31;;;3.72;nan
59053;BME280;44843;44.728;10.396;2023-02-16T06:06:09;101677.97;;;3.63;nan
59053;BME280;44843;44.728;10.396;2023-02-16T06:08:35;101671.91;;;3.70;nan
59053;BME280;44843;44.728;10.396;2023-02-16T06:11:01;101684.84;;;3.64;nan
59053;BME280;44843;44.728;10.396;2023-02-16T06:13:26;101675.22;;;3.81;nan
59053;BME280;44843;44.728;10.396;2023-02-16T06:15:55;101677.06;;;3.70;nan
59053;BME280;44843;44.728;10.396;2023-02-16T06:18:22;101682.25;;;3.65;nan
59053;BME280;44843;44.728;10.396;2023-02-16T06:20:48;101696.00;;;3.64;nan
59053;BME280;44843;44.728;10.396;2023-02-16T06:23:13;101691.78;;;3.59;nan
59053;BME280;44843;44.728;10.396;2023-02-16T06:25:43;101700.34;;;3.62;nan
59053;BME280;44843;44.728;10.396;2023-02-16T06:28:09;101701.25;;;3.57;nan
59053;BME280;44843;44.728;10.396;2023-02-16T06:30:35;101701.19;;;3.64;nan
59053;BME280;44843;44.728;10.396;2023-02-16T06:33:02;101701.97;;;3.71;nan
59053;BME280;44843;44.728;10.396;2023-02-16T06:35:27;101708.88;;;3.72;nan
59053;BME280;44843;44.728;10.396;2023-02-16T06:37:53;101701.03;;;3.83;nan
59053;BME280;44843;44.728;10.396;2023-02-16T06:40:18;101707.03;;;3.82;nan
59053;BME280;44843;44.728;10.396;2023-02-16T06:42:44;101711.22;;;3.95;nan
59053;BME280;44843;44.728;10.396;2023-02-16T06:45:09;101710.31;;;4.01;nan
59053;BME280;44843;44.728;10.396;2023-02-16T06:47:36;101704.94;;;4.21;nan
59053;BME280;44843;44.728;10.396;2023-02-16T06:50:02;101708.06;;;4.47;nan
59053;BME280;44843;44.728;10.396;2023-02-16T06:52:27;101709.75;;;4.53;nan
59053;BME280;44843;44.728;10.396;2023-02-16T06:54:53;101710.53;;;4.58;nan
59053;BME280;44843;44.728;10.396;2023-02-16T06:57:18;101712.19;;;4.64;nan
59053;BME280;44843;44.728;10.396;2023-02-16T06:59:43;101717.19;;;4.78;nan
59053;BME280;44843;44.728;10.396;2023-02-16T07:02:09;101712.78;;;4.86;nan
59053;BME280;44843;44.728;10.396;2023-02-16T07:04:35;101719.56;;;4.93;nan
59053;BME280;44843;44.728;10.396;2023-02-16T07:07:01;101714.25;;;5.02;nan
59053;BME280;44843;44.728;10.396;2023-02-16T07:09:26;101714.16;;;5.10;nan
59053;BME280;44843;44.728;10.396;2023-02-16T07:11:52;101716.59;;;5.19;nan
59053;BME280;44843;44.728;10.396;2023-02-16T07:14:17;101713.94;;;5.24;nan
59053;BME280;44843;44.728;10.396;2023-02-16T07:16:42;101717.25;;;5.33;nan
59053;BME280;44843;44.728;10.396;2023-02-16T07:19:09;101717.13;;;5.43;nan
59053;BME280;44843;44.728;10.396;2023-02-16T07:21:35;101716.94;;;5.53;nan
59053;BME280;44843;44.728;10.396;2023-02-16T07:24:00;101721.97;;;5.63;nan
59053;BME280;44843;44.728;10.396;2023-02-16T07:26:25;101723.56;;;5.70;nan
59053;BME280;44843;44.728;10.396;2023-02-16T07:28:51;101728.59;;;5.79;nan
59053;BME280;44843;44.728;10.396;2023-02-16T07:31:16;101724.22;;;5.84;nan
59053;BME280;44843;44.728;10.396;2023-02-16T07:33:42;101729.16;;;6.00;nan
59053;BME280;44843;44.728;10.396;2023-02-16T07:36:08;101732.19;;;6.22;nan
59053;BME280;44843;44.728;10.396;2023-02-16T07:38:34;101726.72;;;6.37;nan
59053;BME280;44843;44.728;10.396;2023-02-16T07:40:59;101739.34;;;6.54;nan
59053;BME280;44843;44.728;10.396;2023-02-16T07:43:25;101734.59;;;6.74;nan
59053;BME280;44843;44.728;10.396;2023-02-16T07:45:51;101740.81;;;7.06;nan
59053;BME280;44843;44.728;10.396;2023-02-16T07:48:16;101740.28;;;7.31;nan
59053;BME280;44843;44.728;10.396;2023-02-16T07:50:42;101740.09;;;7.38;nan
59053;BME280;44843;44.728;10.396;2023-02-16T07:53:07;101741.63;;;7.47;nan
59053;BME280;44843;44.728;10.396;2023-02-16T07:55:38;101749.19;;;7.56;nan
59053;BME280;44843;44.728;10.396;2023-02-16T07:58:04;101747.97;;;7.71;nan
59053;BME280;44843;44.728;10.396;2023-02-16T08:00:30;101753.88;;;7.78;nan
59053;BME280;44843;44.728;10.396;2023-02-16T08:02:55;101756.97;;;7.92;nan
59053;BME280;44843;44.728;10.396;2023-02-16T08:05:20;101761.84;;;8.04;nan
59053;BME280;44843;44.728;10.396;2023-02-16T08:07:46;101763.72;;;7.99;nan
59053;BME280;44843;44.728;10.396;2023-02-16T08:10:12;101763.28;;;8.16;nan
59053;BME280;44843;44.728;10.396;2023-02-16T08:12:37;101766.41;;;8.29;nan
59053;BME280;44843;44.728;10.396;2023-02-16T08:15:03;101767.03;;;8.37;nan
59053;BME280;44843;44.728;10.396;2023-02-16T08:17:29;101769.59;;;8.40;nan
59053;BME280;44843;44.728;10.396;2023-02-16T08:19:54;101769.44;;;8.47;nan
59053;BME280;44843;44.728;10.396;2023-02-16T08:22:19;101769.28;;;8.53;nan
59053;BME280;44843;44.728;10.396;2023-02-16T08:24:45;101775.16;;;8.59;nan
59053;BME280;44843;44.728;10.396;2023-02-16T08:27:10;101779.25;;;8.68;nan
59053;BME280;44843;44.728;10.396;2023-02-16T08:29:36;101782.84;;;8.64;nan
59053;BME280;44843;44.728;10.396;2023-02-16T08:32:02;101775.19;;;8.87;nan
59053;BME280;44843;44.728;10.396;2023-02-16T08:34:32;101780.59;;;8.81;nan
59053;BME280;44843;44.728;10.396;2023-02-16T08:36:59;101782.03;;;8.92;nan
59053;BME280;44843;44.728;10.396;2023-02-16T08:39:27;101783.84;;;9.18;nan
59053;BME280;44843;44.728;10.396;2023-02-16T08:41:54;101786.06;;;9.32;nan
59053;BME280;44843;44.728;10.396;2023-02-16T08:44:22;101790.94;;;9.42;nan
59053;BME280;44843;44.728;10.396;2023-02-16T08:46:49;101783.50;;;9.58;nan
59053;BME280;44843;44.728;10.396;2023-02-16T08:49:16;101782.72;;;9.55;nan
59053;BME280;44843;44.728;10.396;2023-02-16T08:51:45;101790.53;;;9.55;nan
59053;BME280;44843;44.728;10.396;2023-02-16T08:54:24;101796.59;;;9.55;nan
59053;BME280;44843;44.728;10.396;2023-02-16T08:56:54;101802.94;;;9.46;nan
59053;BME280;44843;44.728;10.396;2023-02-16T08:59:21;101802.19;;;9.43;nan
59053;BME280;44843;44.728;10.396;2023-02-16T09:01:47;101799.66;;;9.40;nan
59053;BME280;44843;44.728;10.396;2023-02-16T09:04:13;101805.69;;;9.42;nan
59053;BME280;44843;44.728;10.396;2023-02-16T09:06:42;101803.00;;;9.45;nan
59053;BME280;44843;44.728;10.396;2023-02-16T09:09:09;101808.91;;;9.50;nan
59053;BME280;44843;44.728;10.396;2023-02-16T09:11:36;101810.06;;;9.41;nan
59053;BME280;44843;44.728;10.396;2023-02-16T09:14:01;101815.22;;;9.43;nan
59053;BME280;44843;44.728;10.396;2023-02-16T09:16:28;101815.88;;;9.49;nan
59053;BME280;44843;44.728;10.396;2023-02-16T09:18:58;101821.06;;;9.51;nan
59053;BME280;44843;44.728;10.396;2023-02-16T09:21:26;101826.84;;;9.59;nan
59053;BME280;44843;44.728;10.396;2023-02-16T09:23:53;101826.38;;;9.46;nan
59053;BME280;44843;44.728;10.396;2023-02-16T09:26:21;101829.19;;;9.40;nan
59053;BME280;44843;44.728;10.396;2023-02-16T09:28:47;101829.22;;;9.39;nan
59053;BME280;44843;44.728;10.396;2023-02-16T09:31:16;101831.31;;;9.27;nan
59053;BME280;44843;44.728;10.396;2023-02-16T09:33:44;101828.41;;;9.37;nan
59053;BME280;44843;44.728;10.396;2023-02-16T09:36:11;101836.56;;;9.54;nan
59053;BME280;44843;44.728;10.396;2023-02-16T09:38:38;101825.41;;;9.77;nan
59053;BME280;44843;44.728;10.396;2023-02-16T09:41:07;101833.25;;;10.04;nan
59053;BME280;44843;44.728;10.396;2023-02-16T09:43:47;101835.72;;;10.08;nan
59053;BME280;44843;44.728;10.396;2023-02-16T09:46:16;101829.53;;;10.11;nan
59053;BME280;44843;44.728;10.396;2023-02-16T09:48:46;101829.97;;;10.24;nan
59053;BME280;44843;44.728;10.396;2023-02-16T09:51:26;101837.78;;;10.24;nan
59053;BME280;44843;44.728;10.396;2023-02-16T09:53:58;101826.59;;;10.20;nan
59053;BME280;44843;44.728;10.396;2023-02-16T09:56:35;101828.84;;;10.33;nan
59053;BME280;44843;44.728;10.396;2023-02-16T10:01:57;101818.53;;;10.28;nan
59053;BME280;44843;44.728;10.396;2023-02-16T10:07:28;101813.50;;;10.48;nan
59053;BME280;44843;44.728;10.396;2023-02-16T10:09:58;101822.81;;;10.56;nan
59053;BME280;44843;44.728;10.396;2023-02-16T10:12:30;101817.91;;;10.71;nan
59053;BME280;44843;44.728;10.396;2023-02-16T10:15:13;101817.13;;;10.69;nan
59053;BME280;44843;44.728;10.396;2023-02-16T10:17:44;101822.25;;;10.71;nan
59053;BME280;44843;44.728;10.396;2023-02-16T10:20:13;101821.16;;;10.78;nan
59053;BME280;44843;44.728;10.396;2023-02-16T10:22:48;101822.63;;;10.85;nan
59053;BME280;44843;44.728;10.396;2023-02-16T10:25:33;101819.28;;;10.82;nan
59053;BME280;44843;44.728;10.396;2023-02-16T10:28:19;101819.84;;;10.90;nan
59053;BME280;44843;44.728;10.396;2023-02-16T10:31:00;101813.88;;;11.10;nan
59053;BME280;44843;44.728;10.396;2023-02-16T10:33:59;101817.44;;;11.31;nan
59053;BME280;44843;44.728;10.396;2023-02-16T10:44:58;101816.66;;;11.95;nan
59053;BME280;44843;44.728;10.396;2023-02-16T10:47:34;101826.31;;;11.93;nan
59053;BME280;44843;44.728;10.396;2023-02-16T10:50:02;101817.69;;;11.69;nan
59053;BME280;44843;44.728;10.396;2023-02-16T10:52:32;101823.09;;;11.64;nan
59053;BME280;44843;44.728;10.396;2023-02-16T10:55:00;101816.28;;;11.60;nan
59053;BME280;44843;44.728;10.396;2023-02-16T10:57:29;101812.09;;;11.56;nan
59053;BME280;44843;44.728;10.396;2023-02-16T11:00:00;101810.59;;;11.50;nan
59053;BME280;44843;44.728;10.396;2023-02-16T11:02:41;101809.44;;;11.58;nan
59053;BME280;44843;44.728;10.396;2023-02-16T11:05:28;101807.28;;;11.67;nan
59053;BME280;44843;44.728;10.396;2023-02-16T11:07:57;101799.16;;;11.53;nan
59053;BME280;44843;44.728;10.396;2023-02-16T11:10:47;101791.75;;;11.64;nan
59053;BME280;44843;44.728;10.396;2023-02-16T11:15:50;101797.53;;;11.72;nan
59053;BME280;44843;44.728;10.396;2023-02-16T11:18:24;101791.31;;;11.75;nan
59053;BME280;44843;44.728;10.396;2023-02-16T11:20:53;101788.88;;;11.70;nan
59053;BME280;44843;44.728;10.396;2023-02-16T11:25:52;101781.91;;;11.71;nan
59053;BME280;44843;44.728;10.396;2023-02-16T11:28:24;101778.13;;;11.78;nan
59053;BME280;44843;44.728;10.396;2023-02-16T11:30:49;101771.03;;;12.02;nan
59053;BME280;44843;44.728;10.396;2023-02-16T11:33:24;101770.72;;;12.30;nan
59053;BME280;44843;44.728;10.396;2023-02-16T11:35:51;101763.06;;;12.26;nan
59053;BME280;44843;44.728;10.396;2023-02-16T11:38:27;101761.38;;;12.25;nan
59053;BME280;44843;44.728;10.396;2023-02-16T11:40:53;101766.16;;;12.35;nan
59053;BME280;44843;44.728;10.396;2023-02-16T11:43:19;101759.56;;;12.27;nan
59053;BME280;44843;44.728;10.396;2023-02-16T11:45:55;101758.97;;;12.20;nan
59053;BME280;44843;44.728;10.396;2023-02-16T11:48:24;101742.50;;;12.18;nan
59053;BME280;44843;44.728;10.396;2023-02-16T11:50:58;101764.72;;;12.08;nan
59053;BME280;44843;44.728;10.396;2023-02-16T11:53:28;101747.50;;;12.02;nan
59053;BME280;44843;44.728;10.396;2023-02-16T11:58:36;101751.06;;;12.01;nan
59053;BME280;44843;44.728;10.396;2023-02-16T12:08:26;101741.53;;;11.78;nan
59053;BME280;44843;44.728;10.396;2023-02-16T12:11:08;101726.47;;;11.63;nan
59053;BME280;44843;44.728;10.396;2023-02-16T12:16:30;101732.59;;;11.84;nan
59053;BME280;44843;44.728;10.396;2023-02-16T12:21:41;101712.09;;;11.95;nan
59053;BME280;44843;44.728;10.396;2023-02-16T12:24:19;101705.25;;;11.92;nan
59053;BME280;44843;44.728;10.396;2023-02-16T12:26:50;101710.00;;;12.03;nan
59053;BME280;44843;44.728;10.396;2023-02-16T12:34:22;101690.00;;;12.61;nan
59053;BME280;44843;44.728;10.396;2023-02-16T12:39:17;101690.38;;;12.53;nan
59053;BME280;44843;44.728;10.396;2023-02-16T12:44:41;101677.81;;;12.22;nan
59053;BME280;44843;44.728;10.396;2023-02-16T12:47:10;101675.47;;;12.15;nan
59053;BME280;44843;44.728;10.396;2023-02-16T12:49:55;101677.91;;;12.20;nan
59053;BME280;44843;44.728;10.396;2023-02-16T12:54:56;101677.22;;;12.35;nan
59053;BME280;44843;44.728;10.396;2023-02-16T12:57:23;101670.34;;;12.33;nan
59053;BME280;44843;44.728;10.396;2023-02-16T13:04:46;101670.78;;;12.43;nan
59053;BME280;44843;44.728;10.396;2023-02-16T13:07:15;101660.88;;;12.49;nan
59053;BME280;44843;44.728;10.396;2023-02-16T13:09:50;101658.47;;;12.45;nan
59053;BME280;44843;44.728;10.396;2023-02-16T13:14:42;101653.53;;;12.39;nan
59053;BME280;44843;44.728;10.396;2023-02-16T13:19:35;101646.66;;;12.36;nan
59053;BME280;44843;44.728;10.396;2023-02-16T13:33:03;101640.91;;;12.85;nan
59053;BME280;44843;44.728;10.396;2023-02-16T13:45:22;101638.75;;;12.56;nan
59053;BME280;44843;44.728;10.396;2023-02-16T13:47:48;101629.72;;;12.45;nan
59053;BME280;44843;44.728;10.396;2023-02-16T13:52:48;101625.38;;;12.44;nan
59053;BME280;44843;44.728;10.396;2023-02-16T13:55:22;101626.81;;;12.32;nan
59053;BME280;44843;44.728;10.396;2023-02-16T14:00:26;101623.53;;;12.46;nan
59053;BME280;44843;44.728;10.396;2023-02-16T14:02:59;101619.47;;;12.40;nan
59053;BME280;44843;44.728;10.396;2023-02-16T14:05:26;101619.59;;;12.56;nan
59053;BME280;44843;44.728;10.396;2023-02-16T14:13:23;101611.66;;;12.57;nan
59053;BME280;44843;44.728;10.396;2023-02-16T14:15:51;101607.06;;;12.63;nan
59053;BME280;44843;44.728;10.396;2023-02-16T14:20:58;101606.66;;;13.07;nan
59053;BME280;44843;44.728;10.396;2023-02-16T14:23:27;101599.75;;;13.06;nan
59053;BME280;44843;44.728;10.396;2023-02-16T14:26:02;101599.28;;;13.15;nan
59053;BME280;44843;44.728;10.396;2023-02-16T14:30:54;101604.06;;;13.07;nan
59053;BME280;44843;44.728;10.396;2023-02-16T14:33:22;101596.41;;;12.85;nan
59053;BME280;44843;44.728;10.396;2023-02-16T14:38:33;101610.28;;;12.87;nan
59053;BME280;44843;44.728;10.396;2023-02-16T14:41:01;101598.97;;;12.86;nan
59053;BME280;44843;44.728;10.396;2023-02-16T14:43:34;101605.75;;;12.90;nan
59053;BME280;44843;44.728;10.396;2023-02-16T14:48:48;101600.03;;;12.63;nan
59053;BME280;44843;44.728;10.396;2023-02-16T14:56:51;101603.53;;;12.45;nan
59053;BME280;44843;44.728;10.396;2023-02-16T15:01:45;101602.22;;;12.36;nan
59053;BME280;44843;44.728;10.396;2023-02-16T15:04:11;101607.41;;;12.55;nan
59053;BME280;44843;44.728;10.396;2023-02-16T15:06:49;101611.78;;;12.54;nan
59053;BME280;44843;44.728;10.396;2023-02-16T15:11:48;101605.31;;;12.81;nan
59053;BME280;44843;44.728;10.396;2023-02-16T15:14:47;101602.91;;;12.95;nan
59053;BME280;44843;44.728;10.396;2023-02-16T15:17:16;101606.22;;;13.16;nan
59053;BME280;44843;44.728;10.396;2023-02-16T15:19:44;101610.38;;;13.20;nan
59053;BME280;44843;44.728;10.396;2023-02-16T15:22:16;101612.06;;;13.04;nan
59053;BME280;44843;44.728;10.396;2023-02-16T15:24:42;101602.34;;;12.88;nan
59053;BME280;44843;44.728;10.396;2023-02-16T15:27:17;101610.50;;;12.82;nan
59053;BME280;44843;44.728;10.396;2023-02-16T15:29:43;101604.16;;;12.69;nan
59053;BME280;44843;44.728;10.396;2023-02-16T15:32:11;101590.66;;;12.59;nan
59053;BME280;44843;44.728;10.396;2023-02-16T15:34:38;101593.19;;;12.61;nan